sensor_id;sensor_type;location;lat;lon;timestamp;pressure;altitude;pressure_sealevel;temperature;humidity
59829;BME280;45708;51.848;107.620;2023-04-05T00:02:06;94829.03;;;-0.24;44.79
59829;BME280;45708;51.848;107.620;2023-04-05T00:07:07;94822.09;;;-0.15;44.37
59829;BME280;45708;51.848;107.620;2023-04-05T00:12:08;94821.00;;;0.04;44.25
59829;BME280;45708;51.848;107.620;2023-04-05T00:17:09;94800.53;;;0.01;43.56
59829;BME280;45708;51.848;107.620;2023-04-05T00:22:10;94831.72;;;0.33;43.43
59829;BME280;45708;51.848;107.620;2023-04-05T00:27:10;94838.69;;;0.49;43.17
59829;BME280;45708;51.848;107.620;2023-04-05T00:32:11;94835.63;;;0.45;42.05
59829;BME280;45708;51.848;107.620;2023-04-05T00:37:12;94831.22;;;0.46;41.31
59829;BME280;45708;51.848;107.620;2023-04-05T00:42:13;94669.75;;;-0.47;40.86
59829;BME280;45708;51.848;107.620;2023-04-05T00:47:14;94765.47;;;0.05;40.37
59829;BME280;45708;51.848;107.620;2023-04-05T00:52:17;94630.19;;;-0.57;40.52
59829;BME280;45708;51.848;107.620;2023-04-05T00:57:18;94790.47;;;0.46;41.23
59829;BME280;45708;51.848;107.620;2023-04-05T01:02:43;94814.72;;;1.02;41.16
59829;BME280;45708;51.848;107.620;2023-04-05T01:07:50;94652.44;;;0.33;41.08
59829;BME280;45708;51.848;107.620;2023-04-05T01:12:54;94682.56;;;0.58;40.85
59829;BME280;45708;51.848;107.620;2023-04-05T01:17:55;94697.78;;;0.78;40.82
59829;BME280;45708;51.848;107.620;2023-04-05T01:28:30;94860.94;;;2.32;40.86
59829;BME280;45708;51.848;107.620;2023-04-05T01:33:37;94678.25;;;1.44;40.13
59829;BME280;45708;51.848;107.620;2023-04-05T01:38:43;94595.94;;;0.97;40.54
59829;BME280;45708;51.848;107.620;2023-04-05T01:43:46;94593.31;;;1.05;40.38
59829;BME280;45708;51.848;107.620;2023-04-05T01:48:47;94615.38;;;1.09;40.59
59829;BME280;45708;51.848;107.620;2023-04-05T01:53:48;94588.38;;;0.87;40.12
59829;BME280;45708;51.848;107.620;2023-04-05T01:58:50;94795.56;;;2.19;40.11
59829;BME280;45708;51.848;107.620;2023-04-05T02:03:51;94719.28;;;1.88;39.48
59829;BME280;45708;51.848;107.620;2023-04-05T02:08:53;94693.13;;;1.58;39.52
59829;BME280;45708;51.848;107.620;2023-04-05T02:13:54;94809.72;;;2.62;38.79
59829;BME280;45708;51.848;107.620;2023-04-05T02:18:58;94627.19;;;1.43;37.95
59829;BME280;45708;51.848;107.620;2023-04-05T02:23:59;94619.91;;;1.61;37.97
59829;BME280;45708;51.848;107.620;2023-04-05T02:29:00;94803.31;;;3.02;37.31
59829;BME280;45708;51.848;107.620;2023-04-05T02:34:02;94861.13;;;3.94;36.65
59829;BME280;45708;51.848;107.620;2023-04-05T02:39:03;94699.59;;;3.26;36.39
59829;BME280;45708;51.848;107.620;2023-04-05T02:44:07;94649.03;;;3.27;35.78
59829;BME280;45708;51.848;107.620;2023-04-05T02:49:07;94626.69;;;2.88;35.85
59829;BME280;45708;51.848;107.620;2023-04-05T02:54:09;94856.63;;;4.24;36.76
59829;BME280;45708;51.848;107.620;2023-04-05T02:59:10;94878.25;;;4.54;38.80
59829;BME280;45708;51.848;107.620;2023-04-05T03:04:11;94644.63;;;3.49;39.56
59829;BME280;45708;51.848;107.620;2023-04-05T03:09:12;94902.91;;;5.09;41.45
59829;BME280;45708;51.848;107.620;2023-04-05T03:14:14;94736.59;;;3.65;43.16
59829;BME280;45708;51.848;107.620;2023-04-05T03:19:15;94633.78;;;2.94;43.75
59829;BME280;45708;51.848;107.620;2023-04-05T03:24:18;94811.34;;;3.66;45.23
59829;BME280;45708;51.848;107.620;2023-04-05T03:29:20;94810.91;;;3.63;46.45
59829;BME280;45708;51.848;107.620;2023-04-05T03:34:21;94827.47;;;3.70;46.56
59829;BME280;45708;51.848;107.620;2023-04-05T03:39:26;94910.25;;;4.20;47.36
59829;BME280;45708;51.848;107.620;2023-04-05T03:44:27;94808.31;;;3.48;47.41
59829;BME280;45708;51.848;107.620;2023-04-05T03:49:28;94901.34;;;4.30;47.90
59829;BME280;45708;51.848;107.620;2023-04-05T03:54:29;94736.84;;;3.71;46.65
59829;BME280;45708;51.848;107.620;2023-04-05T03:59:30;94774.06;;;4.15;45.67
59829;BME280;45708;51.848;107.620;2023-04-05T04:04:32;94612.19;;;3.00;45.24
59829;BME280;45708;51.848;107.620;2023-04-05T04:09:33;94786.75;;;3.97;44.83
59829;BME280;45708;51.848;107.620;2023-04-05T04:14:34;94747.34;;;3.77;45.01
59829;BME280;45708;51.848;107.620;2023-04-05T04:19:35;94888.63;;;4.91;44.81
59829;BME280;45708;51.848;107.620;2023-04-05T04:24:36;94726.28;;;3.79;44.97
59829;BME280;45708;51.848;107.620;2023-04-05T04:29:37;94725.78;;;4.11;44.43
59829;BME280;45708;51.848;107.620;2023-04-05T04:34:38;94741.25;;;4.34;43.72
59829;BME280;45708;51.848;107.620;2023-04-05T04:39:39;94771.41;;;4.58;43.75
59829;BME280;45708;51.848;107.620;2023-04-05T04:44:42;94609.31;;;3.53;43.61
59829;BME280;45708;51.848;107.620;2023-04-05T04:49:44;94901.28;;;5.36;43.92
59829;BME280;45708;51.848;107.620;2023-04-05T04:54:45;94733.13;;;4.22;43.94
59829;BME280;45708;51.848;107.620;2023-04-05T04:59:46;94799.47;;;4.64;44.30
59829;BME280;45708;51.848;107.620;2023-04-05T05:04:48;94660.13;;;4.00;44.38
59829;BME280;45708;51.848;107.620;2023-04-05T05:09:49;94885.09;;;5.26;44.69
59829;BME280;45708;51.848;107.620;2023-04-05T05:14:52;94677.16;;;2.95;48.88
59829;BME280;45708;51.848;107.620;2023-04-05T05:19:53;94771.44;;;2.40;54.29
59829;BME280;45708;51.848;107.620;2023-04-05T05:24:54;94778.16;;;1.43;59.90
59829;BME280;45708;51.848;107.620;2023-04-05T05:29:55;94763.50;;;0.47;61.75
59829;BME280;45708;51.848;107.620;2023-04-05T05:34:56;94717.09;;;-0.05;62.58
59829;BME280;45708;51.848;107.620;2023-04-05T05:39:57;94755.41;;;0.42;63.64
59829;BME280;45708;51.848;107.620;2023-04-05T05:45:03;94859.19;;;1.32;63.61
59829;BME280;45708;51.848;107.620;2023-04-05T05:50:06;94988.66;;;2.32;62.42
59829;BME280;45708;51.848;107.620;2023-04-05T05:55:07;95004.06;;;2.11;62.44
59829;BME280;45708;51.848;107.620;2023-04-05T06:00:09;94947.66;;;1.87;62.54
59829;BME280;45708;51.848;107.620;2023-04-05T06:05:11;94690.69;;;0.64;61.98
59829;BME280;45708;51.848;107.620;2023-04-05T06:10:12;94862.63;;;2.25;59.77
59829;BME280;45708;51.848;107.620;2023-04-05T06:15:13;94937.03;;;1.97;59.26
59829;BME280;45708;51.848;107.620;2023-04-05T06:20:14;94966.53;;;1.26;61.66
59829;BME280;45708;51.848;107.620;2023-04-05T06:25:15;94849.69;;;-0.14;63.96
59829;BME280;45708;51.848;107.620;2023-04-05T06:30:17;95039.69;;;0.90;64.86
59829;BME280;45708;51.848;107.620;2023-04-05T06:35:23;94840.75;;;-0.62;64.37
59829;BME280;45708;51.848;107.620;2023-04-05T06:45:45;95041.94;;;0.60;61.33
59829;BME280;45708;51.848;107.620;2023-04-05T06:50:46;95060.03;;;0.36;62.96
59829;BME280;45708;51.848;107.620;2023-04-05T06:55:49;95063.28;;;0.38;64.28
59829;BME280;45708;51.848;107.620;2023-04-05T07:00:50;95086.16;;;0.26;63.73
59829;BME280;45708;51.848;107.620;2023-04-05T07:05:53;95115.34;;;-0.06;65.26
59829;BME280;45708;51.848;107.620;2023-04-05T07:10:54;95121.88;;;-0.45;65.97
59829;BME280;45708;51.848;107.620;2023-04-05T07:16:03;95128.88;;;-0.64;66.58
59829;BME280;45708;51.848;107.620;2023-04-05T07:21:04;95142.00;;;-0.65;67.43
59829;BME280;45708;51.848;107.620;2023-04-05T07:26:05;95143.38;;;-0.35;66.99
59829;BME280;45708;51.848;107.620;2023-04-05T07:31:06;95166.78;;;-0.27;66.09
59829;BME280;45708;51.848;107.620;2023-04-05T07:36:08;95203.28;;;-0.28;62.78
59829;BME280;45708;51.848;107.620;2023-04-05T07:41:09;95178.22;;;-0.20;60.62
59829;BME280;45708;51.848;107.620;2023-04-05T07:46:10;95187.09;;;-0.05;57.64
59829;BME280;45708;51.848;107.620;2023-04-05T07:51:11;95165.09;;;0.08;56.88
59829;BME280;45708;51.848;107.620;2023-04-05T07:56:12;95148.50;;;0.01;55.57
59829;BME280;45708;51.848;107.620;2023-04-05T08:01:13;95169.03;;;0.12;54.21
59829;BME280;45708;51.848;107.620;2023-04-05T08:06:15;95167.09;;;0.14;51.68
59829;BME280;45708;51.848;107.620;2023-04-05T08:11:16;95169.31;;;0.09;51.93
59829;BME280;45708;51.848;107.620;2023-04-05T08:16:17;95175.28;;;0.27;50.42
59829;BME280;45708;51.848;107.620;2023-04-05T08:21:17;95172.41;;;0.38;50.52
59829;BME280;45708;51.848;107.620;2023-04-05T08:26:18;95178.72;;;0.36;48.80
59829;BME280;45708;51.848;107.620;2023-04-05T08:31:19;95190.72;;;0.28;47.93
59829;BME280;45708;51.848;107.620;2023-04-05T08:36:20;95202.66;;;-0.05;48.02
59829;BME280;45708;51.848;107.620;2023-04-05T08:41:22;95204.84;;;-0.18;48.88
59829;BME280;45708;51.848;107.620;2023-04-05T08:46:24;95222.28;;;-0.28;48.01
59829;BME280;45708;51.848;107.620;2023-04-05T08:51:25;95201.16;;;-0.33;46.88
59829;BME280;45708;51.848;107.620;2023-04-05T08:56:31;95223.69;;;0.28;45.30
59829;BME280;45708;51.848;107.620;2023-04-05T09:01:36;95219.06;;;0.74;43.54
59829;BME280;45708;51.848;107.620;2023-04-05T09:06:37;95241.56;;;0.91;43.08
59829;BME280;45708;51.848;107.620;2023-04-05T09:11:38;95251.03;;;0.66;42.06
59829;BME280;45708;51.848;107.620;2023-04-05T09:16:40;95248.81;;;0.45;41.02
59829;BME280;45708;51.848;107.620;2023-04-05T09:22:02;95244.75;;;0.43;40.85
59829;BME280;45708;51.848;107.620;2023-04-05T09:27:04;95235.19;;;0.51;39.17
59829;BME280;45708;51.848;107.620;2023-04-05T09:32:06;95231.16;;;0.57;38.72
59829;BME280;45708;51.848;107.620;2023-04-05T09:37:16;95243.19;;;0.32;38.47
59829;BME280;45708;51.848;107.620;2023-04-05T09:42:20;95241.91;;;-0.08;38.88
59829;BME280;45708;51.848;107.620;2023-04-05T09:47:26;95261.56;;;-0.23;37.02
59829;BME280;45708;51.848;107.620;2023-04-05T09:52:29;95257.06;;;-0.56;37.31
59829;BME280;45708;51.848;107.620;2023-04-05T09:57:34;95247.16;;;-0.71;38.00
59829;BME280;45708;51.848;107.620;2023-04-05T10:02:36;95251.19;;;-0.58;37.67
59829;BME280;45708;51.848;107.620;2023-04-05T10:07:38;95262.44;;;-0.68;37.21
59829;BME280;45708;51.848;107.620;2023-04-05T10:12:40;95259.16;;;-0.70;38.50
59829;BME280;45708;51.848;107.620;2023-04-05T10:18:05;95251.16;;;-1.04;39.94
59829;BME280;45708;51.848;107.620;2023-04-05T10:23:16;95268.09;;;-1.09;40.74
59829;BME280;45708;51.848;107.620;2023-04-05T10:28:31;95275.38;;;-1.23;42.18
59829;BME280;45708;51.848;107.620;2023-04-05T10:33:39;95282.69;;;-1.08;41.42
59829;BME280;45708;51.848;107.620;2023-04-05T10:39:15;95308.47;;;-0.97;42.36
59829;BME280;45708;51.848;107.620;2023-04-05T10:44:16;95300.69;;;-0.97;42.40
59829;BME280;45708;51.848;107.620;2023-04-05T10:49:32;95314.88;;;-1.38;43.55
59829;BME280;45708;51.848;107.620;2023-04-05T10:54:36;95323.59;;;-1.49;42.33
59829;BME280;45708;51.848;107.620;2023-04-05T10:59:42;95349.13;;;-1.54;42.46
59829;BME280;45708;51.848;107.620;2023-04-05T11:04:44;95360.97;;;-1.61;43.82
59829;BME280;45708;51.848;107.620;2023-04-05T11:09:52;95369.97;;;-1.85;43.53
59829;BME280;45708;51.848;107.620;2023-04-05T11:20:45;95378.63;;;-2.43;44.08
59829;BME280;45708;51.848;107.620;2023-04-05T11:25:52;95388.09;;;-2.63;45.08
59829;BME280;45708;51.848;107.620;2023-04-05T11:30:54;95407.28;;;-2.66;46.53
59829;BME280;45708;51.848;107.620;2023-04-05T11:36:02;95427.47;;;-2.60;46.44
59829;BME280;45708;51.848;107.620;2023-04-05T11:41:15;95443.72;;;-2.79;46.13
59829;BME280;45708;51.848;107.620;2023-04-05T11:46:16;95452.28;;;-2.78;46.30
59829;BME280;45708;51.848;107.620;2023-04-05T11:51:19;95455.81;;;-2.79;46.35
59829;BME280;45708;51.848;107.620;2023-04-05T11:56:23;95478.63;;;-2.84;46.44
59829;BME280;45708;51.848;107.620;2023-04-05T12:01:25;95482.16;;;-2.85;45.67
59829;BME280;45708;51.848;107.620;2023-04-05T12:06:26;95503.41;;;-2.82;45.60
59829;BME280;45708;51.848;107.620;2023-04-05T12:11:28;95509.38;;;-2.81;46.03
59829;BME280;45708;51.848;107.620;2023-04-05T12:16:29;95509.25;;;-3.00;49.31
59829;BME280;45708;51.848;107.620;2023-04-05T12:21:30;95525.22;;;-3.48;52.46
59829;BME280;45708;51.848;107.620;2023-04-05T12:26:30;95516.34;;;-3.67;52.73
59829;BME280;45708;51.848;107.620;2023-04-05T12:31:40;95534.47;;;-3.78;52.32
59829;BME280;45708;51.848;107.620;2023-04-05T12:36:44;95541.84;;;-3.84;52.57
59829;BME280;45708;51.848;107.620;2023-04-05T12:41:57;95545.53;;;-3.98;52.12
59829;BME280;45708;51.848;107.620;2023-04-05T12:47:01;95555.22;;;-4.02;52.06
59829;BME280;45708;51.848;107.620;2023-04-05T12:52:03;95524.66;;;-4.29;51.85
59829;BME280;45708;51.848;107.620;2023-04-05T12:57:03;95560.53;;;-4.14;51.86
59829;BME280;45708;51.848;107.620;2023-04-05T13:02:04;95577.63;;;-4.02;50.99
59829;BME280;45708;51.848;107.620;2023-04-05T13:07:05;95579.75;;;-4.07;50.63
59829;BME280;45708;51.848;107.620;2023-04-05T13:12:06;95586.81;;;-3.98;50.03
59829;BME280;45708;51.848;107.620;2023-04-05T13:17:07;95595.72;;;-3.91;49.83
59829;BME280;45708;51.848;107.620;2023-04-05T13:22:08;95601.78;;;-3.81;49.58
59829;BME280;45708;51.848;107.620;2023-04-05T13:27:09;95602.06;;;-3.95;49.81
59829;BME280;45708;51.848;107.620;2023-04-05T13:32:09;95587.63;;;-4.09;49.54
59829;BME280;45708;51.848;107.620;2023-04-05T13:37:10;95599.81;;;-4.11;48.28
59829;BME280;45708;51.848;107.620;2023-04-05T13:42:11;95601.13;;;-4.16;46.37
59829;BME280;45708;51.848;107.620;2023-04-05T13:47:12;95612.94;;;-4.25;45.80
59829;BME280;45708;51.848;107.620;2023-04-05T13:52:13;95610.22;;;-4.23;44.73
59829;BME280;45708;51.848;107.620;2023-04-05T13:57:14;95609.28;;;-4.45;44.88
59829;BME280;45708;51.848;107.620;2023-04-05T14:02:16;95605.06;;;-4.46;43.06
59829;BME280;45708;51.848;107.620;2023-04-05T14:07:18;95618.38;;;-4.63;44.62
59829;BME280;45708;51.848;107.620;2023-04-05T14:12:19;95622.69;;;-4.75;43.55
59829;BME280;45708;51.848;107.620;2023-04-05T14:17:20;95617.66;;;-4.76;44.71
59829;BME280;45708;51.848;107.620;2023-04-05T14:22:21;95628.19;;;-4.79;44.22
59829;BME280;45708;51.848;107.620;2023-04-05T14:27:22;95642.66;;;-4.90;44.14
59829;BME280;45708;51.848;107.620;2023-04-05T14:32:23;95637.44;;;-5.01;43.35
59829;BME280;45708;51.848;107.620;2023-04-05T14:37:24;95648.50;;;-4.99;44.19
59829;BME280;45708;51.848;107.620;2023-04-05T14:42:25;95651.22;;;-5.13;43.66
59829;BME280;45708;51.848;107.620;2023-04-05T14:47:26;95659.94;;;-5.27;43.44
59829;BME280;45708;51.848;107.620;2023-04-05T14:52:27;95671.88;;;-5.26;43.63
59829;BME280;45708;51.848;107.620;2023-04-05T14:57:28;95673.25;;;-5.33;44.20
59829;BME280;45708;51.848;107.620;2023-04-05T15:02:28;95671.50;;;-5.32;43.07
59829;BME280;45708;51.848;107.620;2023-04-05T15:07:30;95678.50;;;-5.34;42.62
59829;BME280;45708;51.848;107.620;2023-04-05T15:12:31;95682.84;;;-5.47;42.70
59829;BME280;45708;51.848;107.620;2023-04-05T15:17:32;95663.88;;;-5.70;42.49
59829;BME280;45708;51.848;107.620;2023-04-05T15:22:33;95697.69;;;-5.51;41.76
59829;BME280;45708;51.848;107.620;2023-04-05T15:27:34;95721.81;;;-5.65;43.03
59829;BME280;45708;51.848;107.620;2023-04-05T15:32:36;95725.94;;;-5.75;42.47
59829;BME280;45708;51.848;107.620;2023-04-05T15:37:37;95730.16;;;-5.87;42.47
59829;BME280;45708;51.848;107.620;2023-04-05T15:42:38;95732.34;;;-5.93;43.20
59829;BME280;45708;51.848;107.620;2023-04-05T15:47:38;95734.38;;;-5.86;43.06
59829;BME280;45708;51.848;107.620;2023-04-05T15:52:39;95741.16;;;-5.85;42.17
59829;BME280;45708;51.848;107.620;2023-04-05T15:57:40;95735.66;;;-5.91;42.81
59829;BME280;45708;51.848;107.620;2023-04-05T16:02:41;95738.00;;;-6.01;43.25
59829;BME280;45708;51.848;107.620;2023-04-05T16:07:43;95740.38;;;-6.10;42.15
59829;BME280;45708;51.848;107.620;2023-04-05T16:12:44;95746.34;;;-5.97;42.61
59829;BME280;45708;51.848;107.620;2023-04-05T16:17:45;95741.28;;;-6.11;43.13
59829;BME280;45708;51.848;107.620;2023-04-05T16:22:46;95746.66;;;-6.15;43.23
59829;BME280;45708;51.848;107.620;2023-04-05T16:27:46;95755.97;;;-6.26;42.22
59829;BME280;45708;51.848;107.620;2023-04-05T16:32:49;95769.75;;;-6.27;41.89
59829;BME280;45708;51.848;107.620;2023-04-05T16:37:50;95755.16;;;-6.39;42.47
59829;BME280;45708;51.848;107.620;2023-04-05T16:42:51;95763.38;;;-6.34;42.44
59829;BME280;45708;51.848;107.620;2023-04-05T16:47:52;95768.72;;;-6.37;43.30
59829;BME280;45708;51.848;107.620;2023-04-05T16:52:52;95766.16;;;-6.37;42.26
59829;BME280;45708;51.848;107.620;2023-04-05T16:57:53;95769.31;;;-6.47;41.99
59829;BME280;45708;51.848;107.620;2023-04-05T17:02:54;95778.44;;;-6.55;42.16
59829;BME280;45708;51.848;107.620;2023-04-05T17:07:55;95767.28;;;-6.68;43.44
59829;BME280;45708;51.848;107.620;2023-04-05T17:12:56;95775.38;;;-6.75;42.89
59829;BME280;45708;51.848;107.620;2023-04-05T17:17:57;95770.06;;;-6.71;43.55
59829;BME280;45708;51.848;107.620;2023-04-05T17:22:57;95771.38;;;-6.79;42.93
59829;BME280;45708;51.848;107.620;2023-04-05T17:27:58;95765.06;;;-6.87;43.15
59829;BME280;45708;51.848;107.620;2023-04-05T17:32:59;95763.31;;;-6.87;43.20
59829;BME280;45708;51.848;107.620;2023-04-05T17:38:00;95776.16;;;-6.87;43.42
59829;BME280;45708;51.848;107.620;2023-04-05T17:43:01;95797.28;;;-6.96;43.20
59829;BME280;45708;51.848;107.620;2023-04-05T17:48:02;95783.88;;;-7.01;43.15
59829;BME280;45708;51.848;107.620;2023-04-05T17:53:02;95801.31;;;-7.06;44.07
59829;BME280;45708;51.848;107.620;2023-04-05T17:58:03;95801.72;;;-7.12;44.00
59829;BME280;45708;51.848;107.620;2023-04-05T18:03:04;95808.31;;;-7.08;44.27
59829;BME280;45708;51.848;107.620;2023-04-05T18:08:05;95791.00;;;-7.19;44.28
59829;BME280;45708;51.848;107.620;2023-04-05T18:13:06;95805.41;;;-7.16;44.25
59829;BME280;45708;51.848;107.620;2023-04-05T18:18:07;95798.97;;;-7.23;44.68
59829;BME280;45708;51.848;107.620;2023-04-05T18:23:07;95801.56;;;-7.38;45.00
59829;BME280;45708;51.848;107.620;2023-04-05T18:28:08;95799.81;;;-7.51;45.20
59829;BME280;45708;51.848;107.620;2023-04-05T18:33:09;95802.19;;;-7.62;45.63
59829;BME280;45708;51.848;107.620;2023-04-05T18:38:10;95795.66;;;-7.82;45.91
59829;BME280;45708;51.848;107.620;2023-04-05T18:43:11;95799.69;;;-7.92;46.06
59829;BME280;45708;51.848;107.620;2023-04-05T18:48:12;95797.59;;;-8.00;46.48
59829;BME280;45708;51.848;107.620;2023-04-05T18:53:13;95809.66;;;-8.02;46.76
59829;BME280;45708;51.848;107.620;2023-04-05T18:58:14;95803.41;;;-8.12;46.48
59829;BME280;45708;51.848;107.620;2023-04-05T19:03:14;95798.81;;;-8.21;47.00
59829;BME280;45708;51.848;107.620;2023-04-05T19:08:17;95796.50;;;-8.26;46.66
59829;BME280;45708;51.848;107.620;2023-04-05T19:13:17;95800.00;;;-8.27;47.17
59829;BME280;45708;51.848;107.620;2023-04-05T19:18:18;95794.88;;;-8.27;47.08
59829;BME280;45708;51.848;107.620;2023-04-05T19:23:19;95801.31;;;-8.20;46.83
59829;BME280;45708;51.848;107.620;2023-04-05T19:28:20;95804.94;;;-8.24;46.61
59829;BME280;45708;51.848;107.620;2023-04-05T19:33:21;95822.31;;;-8.29;46.81
59829;BME280;45708;51.848;107.620;2023-04-05T19:38:22;95820.66;;;-8.30;47.31
59829;BME280;45708;51.848;107.620;2023-04-05T19:43:23;95798.66;;;-8.18;46.81
59829;BME280;45708;51.848;107.620;2023-04-05T19:48:35;95800.78;;;-8.11;46.97
59829;BME280;45708;51.848;107.620;2023-04-05T19:53:46;95794.00;;;-8.12;46.83
59829;BME280;45708;51.848;107.620;2023-04-05T19:58:49;95797.19;;;-8.08;46.35
59829;BME280;45708;51.848;107.620;2023-04-05T20:03:53;95795.00;;;-8.14;47.33
59829;BME280;45708;51.848;107.620;2023-04-05T20:08:58;95797.28;;;-8.10;47.17
59829;BME280;45708;51.848;107.620;2023-04-05T20:14:00;95810.66;;;-8.19;46.75
59829;BME280;45708;51.848;107.620;2023-04-05T20:19:06;95808.41;;;-8.25;47.55
59829;BME280;45708;51.848;107.620;2023-04-05T20:24:09;95798.25;;;-8.27;46.80
59829;BME280;45708;51.848;107.620;2023-04-05T20:29:14;95791.56;;;-8.29;46.92
59829;BME280;45708;51.848;107.620;2023-04-05T20:34:33;95791.88;;;-8.34;47.51
59829;BME280;45708;51.848;107.620;2023-04-05T20:39:34;95788.66;;;-8.37;47.92
59829;BME280;45708;51.848;107.620;2023-04-05T20:44:35;95777.78;;;-8.41;47.00
59829;BME280;45708;51.848;107.620;2023-04-05T20:49:36;95776.09;;;-8.42;47.15
59829;BME280;45708;51.848;107.620;2023-04-05T20:54:37;95778.22;;;-8.34;47.85
59829;BME280;45708;51.848;107.620;2023-04-05T20:59:37;95790.81;;;-8.45;48.39
59829;BME280;45708;51.848;107.620;2023-04-05T21:04:38;95780.44;;;-8.58;48.14
59829;BME280;45708;51.848;107.620;2023-04-05T21:09:39;95766.09;;;-8.61;47.59
59829;BME280;45708;51.848;107.620;2023-04-05T21:14:40;95760.88;;;-8.59;47.67
59829;BME280;45708;51.848;107.620;2023-04-05T21:19:40;95751.69;;;-8.63;48.37
59829;BME280;45708;51.848;107.620;2023-04-05T21:24:41;95744.41;;;-8.55;47.54
59829;BME280;45708;51.848;107.620;2023-04-05T21:29:42;95746.34;;;-8.58;47.76
59829;BME280;45708;51.848;107.620;2023-04-05T21:34:43;95740.97;;;-8.70;47.74
59829;BME280;45708;51.848;107.620;2023-04-05T21:39:44;95743.28;;;-8.65;47.90
59829;BME280;45708;51.848;107.620;2023-04-05T21:44:44;95755.59;;;-8.72;47.89
59829;BME280;45708;51.848;107.620;2023-04-05T21:49:45;95760.16;;;-8.77;48.05
59829;BME280;45708;51.848;107.620;2023-04-05T21:54:46;95756.19;;;-8.82;48.29
59829;BME280;45708;51.848;107.620;2023-04-05T21:59:47;95754.06;;;-8.90;48.22
59829;BME280;45708;51.848;107.620;2023-04-05T22:04:48;95769.19;;;-9.01;48.61
59829;BME280;45708;51.848;107.620;2023-04-05T22:09:48;95768.63;;;-9.06;48.76
59829;BME280;45708;51.848;107.620;2023-04-05T22:14:49;95766.22;;;-9.09;48.56
59829;BME280;45708;51.848;107.620;2023-04-05T22:19:50;95766.47;;;-8.98;48.88
59829;BME280;45708;51.848;107.620;2023-04-05T22:24:51;95759.53;;;-8.96;48.73
59829;BME280;45708;51.848;107.620;2023-04-05T22:29:52;95773.81;;;-8.92;49.02
59829;BME280;45708;51.848;107.620;2023-04-05T22:34:52;95778.84;;;-8.91;49.38
59829;BME280;45708;51.848;107.620;2023-04-05T22:39:53;95782.63;;;-8.82;49.12
59829;BME280;45708;51.848;107.620;2023-04-05T22:44:54;95785.13;;;-8.80;48.47
59829;BME280;45708;51.848;107.620;2023-04-05T22:49:55;95790.91;;;-8.77;49.37
59829;BME280;45708;51.848;107.620;2023-04-05T22:54:55;95798.78;;;-8.66;49.18
59829;BME280;45708;51.848;107.620;2023-04-05T22:59:56;95806.13;;;-8.30;49.55
59829;BME280;45708;51.848;107.620;2023-04-05T23:04:57;95809.63;;;-6.88;49.33
59829;BME280;45708;51.848;107.620;2023-04-05T23:09:58;95808.50;;;-5.53;47.25
59829;BME280;45708;51.848;107.620;2023-04-05T23:14:59;95803.28;;;-4.06;45.02
59829;BME280;45708;51.848;107.620;2023-04-05T23:20:00;95809.53;;;-2.84;42.77
59829;BME280;45708;51.848;107.620;2023-04-05T23:25:01;95810.59;;;-2.00;41.98
59829;BME280;45708;51.848;107.620;2023-04-05T23:30:03;95811.09;;;-0.52;39.54
59829;BME280;45708;51.848;107.620;2023-04-05T23:35:04;95799.88;;;0.73;37.51
59829;BME280;45708;51.848;107.620;2023-04-05T23:40:07;95812.34;;;2.24;34.87
59829;BME280;45708;51.848;107.620;2023-04-05T23:45:08;95818.44;;;2.15;34.84
59829;BME280;45708;51.848;107.620;2023-04-05T23:50:09;95798.78;;;3.58;32.89
59829;BME280;45708;51.848;107.620;2023-04-05T23:55:10;95802.84;;;4.11;31.75
